Time;durP1;ratioP1;P1;durP2;ratioP2;P2;SDS_P1;SDS_P2;PMS_P1;PMS_P2;Temp;Humidity;BMP_temperature;BMP_pressure;BME280_temperature;BME280_humidity;BME280_pressure;Samples;Min_cycle;Max_cycle;Signal;HPM_P1;HPM_P2
2021/12/12 00:02:10;;;;;;;57.17;24.15;;;3.50;99.90;;;;;;5122812;27;20220;-67
2021/12/12 00:04:44;;;;;;;49.33;24.42;;;3.60;99.90;;;;;;5121316;27;20289;-67
2021/12/12 00:07:20;;;;;;;61.28;26.42;;;3.70;99.90;;;;;;5121852;27;20201;-67
2021/12/12 00:09:52;;;;;;;52.53;22.65;;;3.70;99.90;;;;;;5121744;27;20813;-66
2021/12/12 00:12:24;;;;;;;64.75;26.30;;;3.60;99.90;;;;;;5122297;27;20191;-66
2021/12/12 00:14:52;;;;;;;56.72;25.38;;;3.70;99.90;;;;;;5121928;27;20201;-66
2021/12/12 00:17:23;;;;;;;59.67;24.00;;;3.70;99.90;;;;;;5121168;27;20203;-66
2021/12/12 00:19:51;;;;;;;54.13;25.20;;;3.70;99.90;;;;;;5121915;27;20301;-67
2021/12/12 00:22:24;;;;;;;52.03;25.15;;;3.60;99.90;;;;;;5121899;27;20201;-66
2021/12/12 00:24:53;;;;;;;57.45;23.73;;;3.60;99.90;;;;;;5120988;27;20294;-66
2021/12/12 00:27:21;;;;;;;54.78;22.73;;;3.60;99.90;;;;;;5120840;27;20203;-66
2021/12/12 00:29:49;;;;;;;53.40;23.60;;;3.60;99.90;;;;;;5120394;27;20206;-65
2021/12/12 00:32:19;;;;;;;58.83;23.60;;;3.60;99.90;;;;;;5121387;27;20195;-66
2021/12/12 00:34:52;;;;;;;62.08;24.05;;;3.60;99.90;;;;;;5121046;27;20238;-65
2021/12/12 00:37:21;;;;;;;68.30;24.05;;;3.60;99.90;;;;;;5121258;27;20319;-68
2021/12/12 00:39:53;;;;;;;71.80;26.25;;;3.60;99.90;;;;;;5122354;27;20241;-68
2021/12/12 00:42:23;;;;;;;62.83;26.90;;;3.50;99.90;;;;;;5122203;27;20197;-65
2021/12/12 00:44:54;;;;;;;55.58;22.92;;;3.60;99.90;;;;;;5121252;27;20198;-67
2021/12/12 00:47:23;;;;;;;55.38;25.73;;;3.50;99.90;;;;;;5120913;27;20195;-65
2021/12/12 00:50:12;;;;;;;54.88;24.92;;;3.60;99.90;;;;;;5120701;27;20252;-68
2021/12/12 00:52:42;;;;;;;57.55;22.58;;;3.50;99.90;;;;;;5121443;27;20205;-67
2021/12/12 00:55:11;;;;;;;67.47;25.20;;;3.60;99.90;;;;;;5120815;27;20299;-67
2021/12/12 00:57:39;;;;;;;60.97;24.52;;;3.60;99.90;;;;;;5120575;27;20230;-68
2021/12/12 01:00:11;;;;;;;57.15;24.52;;;3.70;99.90;;;;;;5120833;27;20253;-66
2021/12/12 01:02:40;;;;;;;65.97;26.63;;;3.60;99.90;;;;;;5120356;27;20757;-67
2021/12/12 01:05:12;;;;;;;63.78;25.58;;;3.70;99.90;;;;;;5121651;27;20365;-66
2021/12/12 01:07:43;;;;;;;63.47;25.08;;;3.80;99.90;;;;;;5120897;27;20199;-67
2021/12/12 01:10:17;;;;;;;63.25;26.67;;;3.80;99.90;;;;;;5121351;27;20298;-66
2021/12/12 01:12:45;;;;;;;61.88;24.38;;;3.80;99.90;;;;;;5120990;27;20656;-66
2021/12/12 01:15:21;;;;;;;58.05;25.90;;;3.80;99.90;;;;;;5121839;27;20290;-69
2021/12/12 01:17:53;;;;;;;53.67;24.83;;;3.90;99.90;;;;;;5121887;27;20830;-66
2021/12/12 01:20:36;;;;;;;57.50;25.00;;;3.90;99.90;;;;;;5122288;27;20319;-69
2021/12/12 01:23:09;;;;;;;57.35;24.80;;;4.00;99.90;;;;;;5122562;27;20187;-68
2021/12/12 01:25:44;;;;;;;57.78;23.13;;;4.00;99.90;;;;;;5122124;27;20246;-69
2021/12/12 01:28:13;;;;;;;63.17;23.35;;;4.00;99.90;;;;;;5134952;27;20207;-68
2021/12/12 01:30:41;;;;;;;47.25;22.90;;;4.10;99.90;;;;;;5147029;27;20215;-68
2021/12/12 01:33:10;;;;;;;54.08;23.50;;;4.10;99.90;;;;;;5122776;27;20351;-66
2021/12/12 01:35:41;;;;;;;43.38;21.27;;;4.20;99.90;;;;;;5121845;27;20238;-66
2021/12/12 01:40:57;;;;;;;52.17;23.67;;;4.20;99.90;;;;;;5119865;27;20294;-67
2021/12/12 01:43:28;;;;;;;53.40;22.90;;;4.30;99.90;;;;;;5120316;27;20325;-68
2021/12/12 01:46:01;;;;;;;51.53;22.27;;;4.30;99.90;;;;;;5120147;27;20833;-66
2021/12/12 01:48:35;;;;;;;48.17;21.35;;;4.30;99.90;;;;;;5120115;27;20195;-66
2021/12/12 01:51:08;;;;;;;52.10;22.88;;;4.20;99.90;;;;;;5120041;27;20233;-67
2021/12/12 01:53:42;;;;;;;51.78;23.23;;;4.20;99.90;;;;;;5119781;27;20884;-68
2021/12/12 01:56:17;;;;;;;65.03;23.75;;;4.10;99.90;;;;;;5119798;27;20247;-66
2021/12/12 01:58:47;;;;;;;42.08;19.40;;;4.10;99.90;;;;;;5119809;27;20294;-66
2021/12/12 02:01:19;;;;;;;38.00;22.17;;;4.10;99.90;;;;;;5119403;27;20207;-67
2021/12/12 02:03:52;;;;;;;51.92;23.30;;;4.10;99.90;;;;;;5120235;27;20195;-68
2021/12/12 02:06:23;;;;;;;50.47;22.55;;;4.10;99.90;;;;;;5120534;28;20281;-67
2021/12/12 02:08:53;;;;;;;46.45;21.88;;;4.00;99.90;;;;;;5120040;28;20267;-68
2021/12/12 02:11:26;;;;;;;43.13;20.90;;;4.10;99.90;;;;;;5120772;28;20733;-68
2021/12/12 02:13:57;;;;;;;46.92;21.52;;;4.10;99.90;;;;;;5120955;27;20365;-69
2021/12/12 02:16:27;;;;;;;44.90;21.27;;;4.10;99.90;;;;;;5126520;27;20286;-67
2021/12/12 02:18:58;;;;;;;42.92;21.05;;;4.10;99.90;;;;;;5125024;27;20246;-67
2021/12/12 02:21:34;;;;;;;46.33;20.73;;;4.20;99.90;;;;;;5128728;28;20274;-68
2021/12/12 02:24:37;;;;;;;44.08;21.52;;;4.20;99.90;;;;;;5124511;28;20349;-66
2021/12/12 02:35:41;;;;;;;37.67;19.20;;;4.30;99.90;;;;;;5120804;28;20179;-67
2021/12/12 02:38:11;;;;;;;38.05;20.02;;;4.20;99.90;;;;;;5122663;28;20226;-66
2021/12/12 02:40:43;;;;;;;42.97;19.58;;;4.20;99.90;;;;;;5121343;27;20306;-67
2021/12/12 02:43:15;;;;;;;44.40;19.95;;;4.10;99.90;;;;;;5121502;27;20203;-68
2021/12/12 02:45:44;;;;;;;42.80;21.27;;;4.10;99.90;;;;;;5120948;28;20285;-69
2021/12/12 02:48:17;;;;;;;35.72;19.27;;;4.10;99.90;;;;;;5120271;28;20222;-67
2021/12/12 02:50:50;;;;;;;37.33;18.95;;;4.10;99.90;;;;;;5119840;28;20215;-67
2021/12/12 02:53:22;;;;;;;31.83;18.10;;;4.10;99.90;;;;;;5122177;27;20282;-69
2021/12/12 02:55:56;;;;;;;37.22;17.13;;;4.20;99.90;;;;;;5123727;27;20305;-68
2021/12/12 02:58:25;;;;;;;33.92;17.98;;;4.20;99.90;;;;;;5123492;27;20478;-68
2021/12/12 03:01:02;;;;;;;36.85;18.50;;;4.20;99.90;;;;;;5123229;27;20908;-65
2021/12/12 03:03:35;;;;;;;39.40;19.92;;;4.30;99.90;;;;;;5123123;27;20210;-66
2021/12/12 03:06:04;;;;;;;37.35;18.33;;;4.30;99.90;;;;;;5123382;27;20281;-68
2021/12/12 03:08:32;;;;;;;35.40;19.15;;;4.40;99.90;;;;;;5122852;27;20772;-68
2021/12/12 03:11:01;;;;;;;34.97;17.70;;;4.40;99.90;;;;;;5123567;27;20210;-68
2021/12/12 03:13:29;;;;;;;39.17;20.90;;;4.30;99.90;;;;;;5122556;27;20839;-70
2021/12/12 03:15:57;;;;;;;41.38;20.05;;;4.30;99.90;;;;;;5122756;27;20775;-69
2021/12/12 03:18:28;;;;;;;32.65;19.05;;;4.30;99.90;;;;;;5122948;27;20282;-69
2021/12/12 03:20:59;;;;;;;31.75;18.63;;;4.30;99.90;;;;;;5122402;27;20775;-69
2021/12/12 03:23:30;;;;;;;41.78;20.65;;;4.30;99.90;;;;;;5122948;27;20234;-68
2021/12/12 03:26:03;;;;;;;37.60;17.52;;;4.40;99.90;;;;;;5122699;27;20203;-68
2021/12/12 03:28:33;;;;;;;41.58;19.65;;;4.30;99.90;;;;;;5122256;27;20287;-68
2021/12/12 03:31:10;;;;;;;32.47;17.30;;;4.30;99.90;;;;;;5122624;27;20406;-69
2021/12/12 03:33:38;;;;;;;36.42;18.55;;;4.40;99.90;;;;;;5122774;27;20202;-70
2021/12/12 03:36:09;;;;;;;34.17;18.83;;;4.40;99.90;;;;;;5122150;27;20290;-69
2021/12/12 03:38:39;;;;;;;30.83;17.33;;;4.50;99.90;;;;;;5122174;27;20302;-67
2021/12/12 03:41:12;;;;;;;41.30;18.55;;;4.40;99.90;;;;;;5122616;27;20246;-67
2021/12/12 03:43:41;;;;;;;37.83;17.88;;;4.40;99.90;;;;;;5122758;27;20237;-69
2021/12/12 03:46:13;;;;;;;35.60;19.25;;;4.40;99.90;;;;;;5122000;27;20230;-68
2021/12/12 03:48:44;;;;;;;39.88;18.42;;;4.40;99.90;;;;;;5122575;27;20195;-68
2021/12/12 03:51:16;;;;;;;42.83;20.23;;;4.50;99.90;;;;;;5122169;27;20869;-68
2021/12/12 03:53:44;;;;;;;42.13;20.77;;;4.50;99.90;;;;;;5122999;27;20772;-70
2021/12/12 03:56:14;;;;;;;47.55;21.85;;;4.50;99.90;;;;;;5124706;27;20199;-69
2021/12/12 03:58:43;;;;;;;47.67;20.90;;;4.60;99.90;;;;;;5125194;27;20206;-70
2021/12/12 04:01:14;;;;;;;40.60;21.25;;;4.60;99.90;;;;;;5143141;27;20203;-68
2021/12/12 04:03:43;;;;;;;40.00;20.23;;;4.60;99.90;;;;;;5130501;27;20231;-69
2021/12/12 04:06:15;;;;;;;40.70;20.70;;;4.60;99.90;;;;;;5122178;27;20199;-69
2021/12/12 04:08:46;;;;;;;41.95;20.73;;;4.60;99.90;;;;;;5122225;27;20281;-68
2021/12/12 04:11:21;;;;;;;41.53;22.15;;;4.70;99.90;;;;;;5121686;27;20191;-67
2021/12/12 04:13:53;;;;;;;46.00;20.65;;;4.70;99.90;;;;;;5121681;27;20872;-68
2021/12/12 04:16:21;;;;;;;42.25;21.02;;;4.80;99.90;;;;;;5121030;27;20285;-68
2021/12/12 04:18:50;;;;;;;39.03;20.52;;;4.70;99.90;;;;;;5121078;27;20289;-69
2021/12/12 04:21:20;;;;;;;37.88;18.73;;;4.80;99.90;;;;;;5121520;27;20215;-67
2021/12/12 04:23:48;;;;;;;48.65;22.05;;;4.80;99.90;;;;;;5121767;27;20281;-66
2021/12/12 04:26:20;;;;;;;38.30;19.40;;;4.90;99.90;;;;;;5121590;27;20282;-69
2021/12/12 04:28:57;;;;;;;37.55;19.65;;;4.90;99.90;;;;;;5121552;27;20246;-68
2021/12/12 04:31:26;;;;;;;40.47;21.27;;;5.00;99.90;;;;;;5120748;27;20295;-67
2021/12/12 04:33:54;;;;;;;40.53;21.52;;;5.00;99.90;;;;;;5121404;27;20199;-66
2021/12/12 04:36:26;;;;;;;43.20;20.80;;;5.10;99.90;;;;;;5121123;27;20224;-68
2021/12/12 04:38:59;;;;;;;44.00;20.92;;;5.00;99.90;;;;;;5121642;27;20302;-68
2021/12/12 04:41:28;;;;;;;46.70;21.77;;;5.00;99.90;;;;;;5121121;27;20219;-68
2021/12/12 04:43:56;;;;;;;42.38;20.38;;;5.00;99.90;;;;;;5121073;27;20232;-68
2021/12/12 04:46:36;;;;;;;47.08;23.33;;;5.00;99.90;;;;;;5121316;27;20281;-68
2021/12/12 04:51:57;;;;;;;49.50;24.58;;;5.00;99.90;;;;;;5120431;27;20203;-70
2021/12/12 04:54:31;;;;;;;44.78;21.40;;;5.00;99.90;;;;;;5120640;27;20735;-68
2021/12/12 04:57:06;;;;;;;46.47;22.05;;;5.10;99.90;;;;;;5117527;27;20270;-68
2021/12/12 04:59:39;;;;;;;42.67;22.75;;;5.10;99.90;;;;;;5100594;28;20227;-69
2021/12/12 05:02:14;;;;;;;48.70;22.02;;;5.10;99.90;;;;;;5100150;28;20345;-68
2021/12/12 05:04:50;;;;;;;37.03;20.10;;;5.10;99.90;;;;;;5100047;28;20195;-69
2021/12/12 05:07:21;;;;;;;43.88;20.65;;;5.10;99.90;;;;;;5100362;28;20203;-69
2021/12/12 05:09:52;;;;;;;47.40;21.85;;;5.10;99.90;;;;;;5100363;28;20775;-68
2021/12/12 05:12:26;;;;;;;52.53;23.90;;;5.10;99.90;;;;;;5099684;28;20207;-69
2021/12/12 05:14:58;;;;;;;46.53;22.48;;;5.00;99.90;;;;;;5099744;28;20267;-68
2021/12/12 05:17:31;;;;;;;62.92;25.40;;;5.00;99.90;;;;;;5099455;28;20775;-69
2021/12/12 05:20:04;;;;;;;46.00;22.58;;;5.00;99.90;;;;;;5100081;28;20223;-68
2021/12/12 05:22:34;;;;;;;55.38;26.13;;;5.00;99.90;;;;;;5099718;28;20229;-69
2021/12/12 05:25:06;;;;;;;59.72;25.58;;;5.00;99.90;;;;;;5099374;28;20282;-70
2021/12/12 05:27:38;;;;;;;51.90;25.33;;;5.00;99.90;;;;;;5099801;28;20287;-69
2021/12/12 05:30:12;;;;;;;62.55;28.15;;;5.00;99.90;;;;;;5099696;28;20227;-69
2021/12/12 05:32:42;;;;;;;60.50;25.48;;;5.00;99.90;;;;;;5099443;28;20205;-70
2021/12/12 05:35:12;;;;;;;58.22;26.38;;;5.00;99.90;;;;;;5099270;27;20223;-70
2021/12/12 05:37:40;;;;;;;63.78;27.73;;;5.00;99.90;;;;;;5098707;28;20912;-70
2021/12/12 05:40:10;;;;;;;60.30;29.27;;;5.00;99.90;;;;;;5099167;28;20220;-70
2021/12/12 05:42:40;;;;;;;56.30;25.98;;;5.00;99.90;;;;;;5099656;28;20250;-69
2021/12/12 05:45:09;;;;;;;73.07;29.40;;;5.00;99.90;;;;;;5099352;28;20195;-68
2021/12/12 05:47:38;;;;;;;62.03;27.83;;;5.10;99.90;;;;;;5099049;28;20806;-68
2021/12/12 05:50:09;;;;;;;60.50;26.65;;;5.10;99.90;;;;;;5098946;28;20797;-67
2021/12/12 05:52:37;;;;;;;56.90;26.77;;;5.10;99.90;;;;;;5098687;28;20203;-67
2021/12/12 05:55:07;;;;;;;69.70;28.80;;;5.10;99.90;;;;;;5099185;28;20208;-67
2021/12/12 05:57:35;;;;;;;58.35;27.45;;;5.10;99.90;;;;;;5098486;27;20206;-67
2021/12/12 06:00:11;;;;;;;67.50;29.08;;;5.10;99.90;;;;;;5098690;28;20215;-68
2021/12/12 06:02:40;;;;;;;66.75;26.63;;;5.10;99.90;;;;;;5097972;28;20211;-68
2021/12/12 06:05:10;;;;;;;57.72;25.85;;;5.10;99.90;;;;;;5098580;28;20886;-68
2021/12/12 06:07:38;;;;;;;56.67;26.10;;;5.20;99.90;;;;;;5098995;28;20196;-68
2021/12/12 06:10:09;;;;;;;60.47;27.90;;;5.20;99.90;;;;;;5099031;28;20337;-68
2021/12/12 06:12:38;;;;;;;64.00;27.67;;;5.20;99.90;;;;;;5098545;27;20211;-67
2021/12/12 06:15:11;;;;;;;65.82;26.55;;;5.20;99.90;;;;;;5099023;28;20853;-67
2021/12/12 06:17:40;;;;;;;59.03;26.90;;;5.20;99.90;;;;;;5098488;28;20246;-68
2021/12/12 06:20:10;;;;;;;57.97;25.15;;;5.30;99.90;;;;;;5099045;28;20250;-68
2021/12/12 06:22:38;;;;;;;59.58;26.83;;;5.30;99.90;;;;;;5098919;28;20261;-70
2021/12/12 06:25:08;;;;;;;54.78;26.60;;;5.30;99.90;;;;;;5099574;28;20200;-68
2021/12/12 06:27:36;;;;;;;62.60;27.83;;;5.30;99.90;;;;;;5102956;28;20195;-69
2021/12/12 06:30:10;;;;;;;59.17;26.65;;;5.30;99.90;;;;;;5110884;28;20250;-70
2021/12/12 06:32:38;;;;;;;63.55;27.17;;;5.30;99.90;;;;;;5133992;28;20296;-68
2021/12/12 06:35:09;;;;;;;50.70;25.73;;;5.40;99.90;;;;;;5111136;28;20370;-69
2021/12/12 06:37:37;;;;;;;60.17;26.98;;;5.40;99.90;;;;;;5103315;28;20206;-67
2021/12/12 06:40:08;;;;;;;43.90;26.13;;;5.40;99.90;;;;;;5103260;27;20840;-68
2021/12/12 06:42:36;;;;;;;66.60;28.40;;;5.40;99.90;;;;;;5115529;27;20211;-68
2021/12/12 06:45:05;;;;;;;62.10;26.58;;;5.40;99.90;;;;;;5123562;27;20256;-68
2021/12/12 06:47:35;;;;;;;54.95;25.05;;;5.40;99.90;;;;;;5125611;27;20225;-68
2021/12/12 06:50:05;;;;;;;52.45;26.13;;;5.30;99.90;;;;;;5124513;27;20359;-67
2021/12/12 06:52:33;;;;;;;55.08;26.02;;;5.30;99.90;;;;;;5123558;27;20195;-66
2021/12/12 06:55:02;;;;;;;50.50;23.05;;;5.30;99.90;;;;;;5123085;27;20199;-66
2021/12/12 06:57:29;;;;;;;59.08;24.65;;;5.30;99.90;;;;;;5123284;27;20195;-69
2021/12/12 06:59:58;;;;;;;49.75;24.15;;;5.30;99.90;;;;;;5122893;27;20302;-69
2021/12/12 07:02:26;;;;;;;48.70;22.65;;;5.30;99.90;;;;;;5122648;27;20206;-67
2021/12/12 07:04:56;;;;;;;46.08;21.30;;;5.20;99.90;;;;;;5114973;27;20188;-68
2021/12/12 07:07:27;;;;;;;40.78;21.67;;;5.20;99.90;;;;;;5102186;28;20262;-68
2021/12/12 07:09:55;;;;;;;51.20;23.38;;;5.20;99.90;;;;;;5102729;28;20233;-67
2021/12/12 07:12:23;;;;;;;51.92;21.88;;;5.30;99.90;;;;;;5111075;27;20226;-67
2021/12/12 07:14:53;;;;;;;39.80;20.55;;;5.30;99.90;;;;;;5119232;27;20297;-66
2021/12/12 07:17:23;;;;;;;47.53;21.10;;;5.30;99.90;;;;;;5122501;27;20201;-67
2021/12/12 07:19:51;;;;;;;40.45;20.05;;;5.30;99.90;;;;;;5103267;27;20222;-67
2021/12/12 07:22:21;;;;;;;48.58;22.02;;;5.20;99.90;;;;;;5118287;27;20310;-67
2021/12/12 07:24:49;;;;;;;45.90;21.25;;;5.10;99.90;;;;;;5110897;27;20401;-67
2021/12/12 07:27:18;;;;;;;42.72;21.65;;;5.10;99.90;;;;;;5103656;27;20286;-67
2021/12/12 07:29:46;;;;;;;53.42;19.30;;;5.10;99.90;;;;;;5122202;27;20314;-67
2021/12/12 07:32:15;;;;;;;45.72;21.92;;;5.10;99.90;;;;;;5107416;27;20193;-67
2021/12/12 07:34:43;;;;;;;49.25;21.45;;;5.20;99.90;;;;;;5102963;28;20223;-66
2021/12/12 07:37:12;;;;;;;41.15;20.35;;;5.20;99.90;;;;;;5115939;27;20786;-66
2021/12/12 07:39:43;;;;;;;41.22;21.08;;;5.10;99.90;;;;;;5126801;27;20253;-67
2021/12/12 07:42:14;;;;;;;41.58;20.48;;;5.10;99.90;;;;;;5116886;27;20211;-67
2021/12/12 07:44:44;;;;;;;35.47;18.35;;;5.20;99.90;;;;;;5107843;27;20235;-67
2021/12/12 07:47:15;;;;;;;32.13;17.27;;;5.10;99.90;;;;;;5106738;28;20640;-67
2021/12/12 07:49:46;;;;;;;44.90;19.65;;;5.10;99.90;;;;;;5107102;27;20211;-67
2021/12/12 07:52:16;;;;;;;42.75;19.05;;;5.10;99.90;;;;;;5121816;27;20278;-67
2021/12/12 07:54:49;;;;;;;32.95;18.23;;;5.10;99.90;;;;;;5111961;27;20221;-67
2021/12/12 07:57:18;;;;;;;43.30;20.38;;;5.10;99.90;;;;;;5122011;27;20195;-66
2021/12/12 07:59:47;;;;;;;41.92;18.38;;;5.00;99.90;;;;;;5121493;27;20219;-66
2021/12/12 08:02:16;;;;;;;37.28;17.45;;;5.10;99.90;;;;;;5121707;27;20301;-69
2021/12/12 08:04:45;;;;;;;32.75;16.38;;;5.10;99.90;;;;;;5122078;27;20330;-68
2021/12/12 08:07:21;;;;;;;35.10;17.23;;;5.20;99.90;;;;;;5121369;27;20762;-68
2021/12/12 08:09:52;;;;;;;39.03;17.95;;;5.20;99.90;;;;;;5121545;27;20302;-68
2021/12/12 08:12:25;;;;;;;36.75;18.30;;;5.20;99.90;;;;;;5121925;27;20191;-66
2021/12/12 08:14:53;;;;;;;38.33;17.52;;;5.20;99.90;;;;;;5121112;27;20868;-66
2021/12/12 08:17:22;;;;;;;44.42;17.52;;;5.20;99.90;;;;;;5121193;27;20231;-67
2021/12/12 08:19:50;;;;;;;37.97;18.30;;;5.20;99.90;;;;;;5121745;27;20223;-68
2021/12/12 08:22:19;;;;;;;45.85;17.98;;;5.30;99.90;;;;;;5120930;27;20460;-68
2021/12/12 08:24:47;;;;;;;35.00;17.25;;;5.30;99.90;;;;;;5122038;27;20282;-66
2021/12/12 08:27:17;;;;;;;34.05;17.42;;;5.20;99.90;;;;;;5121546;27;20282;-67
2021/12/12 08:29:45;;;;;;;32.67;17.00;;;5.30;99.90;;;;;;5120828;27;20277;-68
2021/12/12 08:32:14;;;;;;;37.53;18.45;;;5.30;99.90;;;;;;5121413;27;20199;-69
2021/12/12 08:35:03;;;;;;;32.47;16.92;;;5.30;99.90;;;;;;5120329;27;20203;-68
2021/12/12 08:37:31;;;;;;;36.55;15.75;;;5.30;99.90;;;;;;5120888;27;20337;-67
2021/12/12 08:40:00;;;;;;;33.70;15.98;;;5.30;99.90;;;;;;5120600;27;20301;-68
2021/12/12 08:42:29;;;;;;;31.55;16.15;;;5.30;99.90;;;;;;5120655;27;20215;-68
2021/12/12 08:44:59;;;;;;;28.75;14.00;;;5.30;99.90;;;;;;5121689;27;20225;-68
2021/12/12 08:47:27;;;;;;;40.53;15.50;;;5.20;99.90;;;;;;5121735;27;20289;-67
2021/12/12 08:49:55;;;;;;;31.40;15.40;;;5.30;99.90;;;;;;5120551;27;20211;-67
2021/12/12 08:52:28;;;;;;;41.70;15.30;;;5.30;99.90;;;;;;5121593;27;20206;-68
2021/12/12 08:54:56;;;;;;;29.10;14.00;;;5.40;99.90;;;;;;5121238;27;20199;-68
2021/12/12 08:57:33;;;;;;;31.80;15.07;;;5.40;99.90;;;;;;5121463;27;20301;-68
2021/12/12 09:00:25;;;;;;;33.05;16.30;;;5.40;99.90;;;;;;5121946;27;20215;-69
2021/12/12 09:02:57;;;;;;;29.08;14.30;;;5.50;99.90;;;;;;5142308;27;20230;-69
2021/12/12 09:05:29;;;;;;;27.23;12.65;;;5.60;99.90;;;;;;5135710;27;20358;-68
2021/12/12 09:08:19;;;;;;;25.00;14.32;;;5.70;99.90;;;;;;5121515;27;20195;-68
2021/12/12 09:10:51;;;;;;;24.73;12.95;;;5.70;99.90;;;;;;5112309;27;20935;-68
2021/12/12 09:13:23;;;;;;;27.20;13.20;;;5.70;99.90;;;;;;5113115;27;20226;-68
2021/12/12 09:15:59;;;;;;;23.85;11.88;;;5.70;99.90;;;;;;5112059;27;20289;-67
2021/12/12 09:18:31;;;;;;;23.90;12.38;;;5.60;99.90;;;;;;5111453;27;20186;-68
2021/12/12 09:21:07;;;;;;;21.30;10.95;;;5.50;99.90;;;;;;5107144;27;20290;-68
2021/12/12 09:23:40;;;;;;;23.52;13.13;;;5.40;99.90;;;;;;5100796;28;20302;-66
2021/12/12 09:26:13;;;;;;;22.35;10.88;;;5.30;99.90;;;;;;5100810;28;20206;-68
2021/12/12 09:28:48;;;;;;;20.60;11.02;;;5.30;99.90;;;;;;5101203;28;20206;-68
2021/12/12 09:31:20;;;;;;;13.77;8.68;;;5.40;99.90;;;;;;5100943;28;20290;-66
2021/12/12 09:33:52;;;;;;;20.83;10.20;;;5.40;99.90;;;;;;5100856;28;20779;-68
2021/12/12 09:36:30;;;;;;;18.25;8.98;;;5.40;99.90;;;;;;5101346;28;20196;-68
2021/12/12 09:39:05;;;;;;;15.07;8.60;;;5.40;99.90;;;;;;5099931;28;20303;-68
2021/12/12 09:41:56;;;;;;;19.13;9.93;;;5.50;99.90;;;;;;5099010;27;20232;-68
2021/12/12 09:44:53;;;;;;;18.13;9.13;;;5.60;99.90;;;;;;5099692;28;20310;-68
2021/12/12 09:47:58;;;;;;;16.45;7.63;;;5.60;99.90;;;;;;5083552;28;20796;-68
2021/12/12 09:53:47;;;;;;;10.07;7.10;;;5.60;99.90;;;;;;5119780;27;20685;-68
2021/12/12 09:56:22;;;;;;;11.77;7.57;;;5.50;99.90;;;;;;5119362;27;20199;-68
2021/12/12 09:58:59;;;;;;;14.82;7.15;;;5.60;99.90;;;;;;5120013;27;20226;-68
2021/12/12 10:01:33;;;;;;;16.00;8.32;;;5.60;99.90;;;;;;5119827;27;20739;-69
2021/12/12 10:04:22;;;;;;;14.80;7.32;;;5.60;99.90;;;;;;5119752;27;20217;-69
2021/12/12 10:07:01;;;;;;;12.15;6.60;;;5.70;99.90;;;;;;5119983;28;20749;-69
2021/12/12 10:09:37;;;;;;;12.95;6.50;;;5.80;99.90;;;;;;5131465;27;20248;-67
2021/12/12 10:12:09;;;;;;;17.20;6.82;;;5.80;99.90;;;;;;5130626;28;20259;-69
2021/12/12 10:14:44;;;;;;;11.65;6.43;;;5.90;99.90;;;;;;5119910;28;20210;-68
2021/12/12 10:17:14;;;;;;;8.63;5.57;;;5.90;99.90;;;;;;5119324;27;20366;-70
2021/12/12 10:19:51;;;;;;;8.02;5.95;;;6.00;99.90;;;;;;5118703;28;20310;-69
2021/12/12 10:22:31;;;;;;;8.50;5.70;;;6.10;99.90;;;;;;5119681;27;20224;-69
2021/12/12 10:25:05;;;;;;;8.77;4.68;;;6.10;99.90;;;;;;5118876;28;20816;-69
2021/12/12 10:27:37;;;;;;;6.03;4.30;;;6.10;99.90;;;;;;5118893;28;20222;-67
2021/12/12 10:30:11;;;;;;;6.25;4.32;;;6.10;99.90;;;;;;5118632;27;20308;-67
2021/12/12 10:32:48;;;;;;;7.88;3.65;;;6.10;99.90;;;;;;5118819;28;20203;-68
2021/12/12 10:35:22;;;;;;;5.20;2.72;;;6.10;99.90;;;;;;5118898;28;20707;-68
2021/12/12 10:37:55;;;;;;;7.25;4.00;;;6.20;99.90;;;;;;5118431;27;20199;-68
2021/12/12 10:40:28;;;;;;;3.88;2.53;;;6.20;99.90;;;;;;5119101;27;20215;-68
2021/12/12 10:43:03;;;;;;;2.92;2.60;;;6.20;99.90;;;;;;5118739;28;20229;-69
2021/12/12 10:45:35;;;;;;;3.17;2.80;;;6.20;99.90;;;;;;5118737;28;20894;-66
2021/12/12 10:48:07;;;;;;;4.75;2.75;;;6.20;99.90;;;;;;5110836;27;20287;-68
2021/12/12 10:50:44;;;;;;;2.78;2.58;;;6.20;99.90;;;;;;5118466;27;20297;-67
2021/12/12 10:53:21;;;;;;;2.80;2.60;;;6.10;99.90;;;;;;5118560;28;20187;-69
2021/12/12 10:55:54;;;;;;;4.57;3.28;;;6.10;99.90;;;;;;5118746;27;20194;-68
2021/12/12 10:58:26;;;;;;;3.85;2.83;;;6.00;99.90;;;;;;5116978;27;20349;-67
2021/12/12 11:00:58;;;;;;;5.28;2.72;;;6.00;99.90;;;;;;5118120;27;20250;-68
2021/12/12 11:03:30;;;;;;;3.53;3.20;;;6.00;99.90;;;;;;5102055;28;20283;-67
2021/12/12 11:06:02;;;;;;;3.63;2.80;;;5.90;99.90;;;;;;5118703;28;20244;-67
2021/12/12 11:08:37;;;;;;;3.05;2.85;;;6.00;99.90;;;;;;5119586;27;20283;-67
2021/12/12 11:11:13;;;;;;;3.47;3.17;;;5.90;99.90;;;;;;5118795;27;20233;-67
2021/12/12 11:13:46;;;;;;;4.93;3.50;;;5.90;99.90;;;;;;5119974;27;20282;-69
2021/12/12 11:16:19;;;;;;;3.67;3.40;;;5.90;99.90;;;;;;5122646;27;20906;-68
2021/12/12 11:18:50;;;;;;;3.47;3.17;;;5.90;99.90;;;;;;5122194;27;20233;-68
2021/12/12 11:21:26;;;;;;;6.70;3.13;;;5.90;99.90;;;;;;5121775;27;20360;-67
2021/12/12 11:23:59;;;;;;;6.53;3.50;;;5.90;99.90;;;;;;5122346;27;20282;-67
2021/12/12 11:26:34;;;;;;;5.35;3.60;;;5.90;99.90;;;;;;5123430;27;20756;-67
2021/12/12 11:29:08;;;;;;;3.95;3.55;;;5.90;99.90;;;;;;5138984;27;20210;-67
2021/12/12 11:31:42;;;;;;;3.67;3.28;;;6.00;99.90;;;;;;5115258;27;20221;-67
2021/12/12 11:34:12;;;;;;;4.20;3.25;;;6.00;99.90;;;;;;5122446;27;20981;-71
2021/12/12 11:36:57;;;;;;;9.10;3.95;;;6.10;99.90;;;;;;5145659;27;20187;-68
2021/12/12 11:39:36;;;;;;;4.28;3.92;;;6.10;99.90;;;;;;5141974;27;20219;-68
2021/12/12 11:42:09;;;;;;;4.10;3.70;;;6.10;99.90;;;;;;5123280;27;20226;-67
2021/12/12 11:44:42;;;;;;;3.85;3.42;;;6.10;99.90;;;;;;5122132;27;20203;-67
2021/12/12 11:47:24;;;;;;;4.05;3.63;;;6.10;99.90;;;;;;5122357;27;20226;-67
2021/12/12 11:49:58;;;;;;;4.15;3.85;;;6.10;99.90;;;;;;5108204;27;20789;-67
2021/12/12 11:52:37;;;;;;;5.55;4.85;;;6.10;99.90;;;;;;5122880;27;20284;-67
2021/12/12 11:55:10;;;;;;;4.55;4.15;;;6.10;99.90;;;;;;5122311;27;20290;-67
2021/12/12 11:57:49;;;;;;;5.45;4.22;;;6.10;99.90;;;;;;5119398;27;20267;-68
2021/12/12 12:00:21;;;;;;;5.35;4.65;;;6.10;99.90;;;;;;5101580;28;20254;-68
2021/12/12 12:03:04;;;;;;;6.35;4.45;;;6.20;99.90;;;;;;5106664;27;20807;-68
2021/12/12 12:05:37;;;;;;;5.53;5.03;;;6.20;99.90;;;;;;5101623;28;20312;-68
2021/12/12 12:08:19;;;;;;;4.50;4.13;;;6.20;99.90;;;;;;5102030;28;20203;-70
2021/12/12 12:11:01;;;;;;;5.55;4.97;;;6.20;99.90;;;;;;5109504;27;20301;-69
2021/12/12 12:13:50;;;;;;;5.50;4.50;;;6.20;99.90;;;;;;5115031;27;20330;-69
2021/12/12 12:16:30;;;;;;;8.68;5.32;;;6.30;99.90;;;;;;5101840;28;20198;-69
2021/12/12 12:19:05;;;;;;;4.85;4.45;;;6.20;99.90;;;;;;5102210;28;20222;-69
2021/12/12 12:21:39;;;;;;;6.47;5.13;;;6.20;99.90;;;;;;5102522;27;20237;-69
2021/12/12 12:24:17;;;;;;;8.15;5.15;;;6.20;99.90;;;;;;5115242;27;20725;-69
2021/12/12 12:26:52;;;;;;;6.22;5.65;;;6.30;99.90;;;;;;5116145;27;20187;-70
2021/12/12 12:30:08;;;;;;;8.25;5.70;;;6.30;99.90;;;;;;5100876;28;20288;-68
2021/12/12 12:33:21;;;;;;;7.43;6.72;;;6.30;99.90;;;;;;5101992;27;20747;-68
2021/12/12 12:36:26;;;;;;;9.65;6.40;;;6.40;99.90;;;;;;5112293;27;20195;-68
2021/12/12 12:39:31;;;;;;;8.43;5.88;;;6.40;99.90;;;;;;5109304;27;20744;-68
2021/12/12 12:42:45;;;;;;;9.77;7.40;;;6.50;99.90;;;;;;5115706;27;20226;-68
2021/12/12 12:48:53;;;;;;;10.02;8.15;;;6.50;99.90;;;;;;5112689;27;20538;-70
2021/12/12 12:51:37;;;;;;;6.68;5.95;;;6.60;99.90;;;;;;5081102;28;20223;-68
2021/12/12 12:54:27;;;;;;;8.70;5.97;;;6.50;99.90;;;;;;5078672;28;20287;-71
2021/12/12 12:57:24;;;;;;;11.43;6.20;;;6.50;99.90;;;;;;5070874;28;20936;-69
2021/12/12 13:00:08;;;;;;;7.22;6.32;;;6.40;99.90;;;;;;5075056;28;20601;-69
2021/12/12 13:02:59;;;;;;;6.72;6.05;;;6.40;99.90;;;;;;5073441;28;20284;-69
2021/12/12 13:06:03;;;;;;;6.13;5.53;;;6.40;99.90;;;;;;5071182;28;20683;-69
2021/12/12 13:09:14;;;;;;;6.82;6.13;;;6.50;99.90;;;;;;5075381;28;20204;-73
2021/12/12 13:12:02;;;;;;;6.28;5.32;;;6.50;99.90;;;;;;5061856;28;20288;-72
2021/12/12 13:14:45;;;;;;;11.18;6.20;;;6.50;99.90;;;;;;5075575;28;20211;-73
2021/12/12 13:17:20;;;;;;;7.63;6.40;;;6.60;99.90;;;;;;5076144;28;20227;-73
2021/12/12 13:20:02;;;;;;;7.43;6.13;;;6.70;99.90;;;;;;5075752;28;20299;-73
2021/12/12 13:22:35;;;;;;;7.57;6.82;;;6.80;99.90;;;;;;5075506;28;20200;-73
2021/12/12 13:25:12;;;;;;;6.32;5.72;;;6.90;99.90;;;;;;5075524;27;20792;-73
2021/12/12 13:30:43;;;;;;;6.43;5.82;;;7.10;99.90;;;;;;5070812;28;20684;-74
2021/12/12 13:33:22;;;;;;;5.63;5.13;;;7.10;99.90;;;;;;5075017;28;20269;-73
2021/12/12 13:36:15;;;;;;;6.35;5.75;;;7.10;99.90;;;;;;5073780;28;20349;-73
2021/12/12 13:38:53;;;;;;;6.32;5.60;;;7.10;99.90;;;;;;5073683;28;20667;-73
2021/12/12 13:41:31;;;;;;;6.03;5.43;;;7.10;99.90;;;;;;5073929;28;20223;-72